Latest Weather Observations for Meekatharra

IDW60801

Issued at 6:02 pm WST Saturday 31 January 2015 (issued every 30 minutes, with the page automatically refreshed every 10 minutes)

About weather observations | Map of weather stations | Latest weather observations for WA | Other Formats
Station Details ID: 007045 Name: MEEKATHARRA AIRPORT Lat: -26.61 Lon: 118.54 Height: 517.0 m
Data from the previous 72 hours. | See also: Recent months at Meekatharra
Date/Time
WST
Temp
°C
App
Temp
°C
Dew
Point
Rel
Hum
%
Delta-T
°C
Wind Press
QNH
hPa
Press
MSL
hPa
Rain
since 9 am
mm
Dir
 
Spd
km/h
Gust
km/h
Spd
kts
Gust
kts
31/06:00pm 29.3 25.6 14.0 39 9.4 ESE 26 37 14 20 1008.5 1004.1 0.0
31/05:30pm 29.5 25.9 15.3 42 8.9 ESE 28 39 15 21 1008.5 - 0.0
31/05:00pm 31.9 26.6 13.1 31 11.5 E 33 52 18 28 1007.9 - 0.0
31/04:30pm 32.6 29.7 13.9 32 11.6 NNE 22 33 12 18 1007.6 - 0.0
31/04:00pm 33.7 32.5 14.0 30 12.3 N 13 22 7 12 1007.9 - 0.0
31/03:30pm 33.8 33.3 14.8 32 12.0 NNE 11 17 6 9 1008.3 - 0.0
31/03:00pm 32.7 31.9 15.2 34 11.1 NE 13 22 7 12 1008.7 1004.3 0.0
31/02:30pm 33.6 33.9 15.0 32 11.8 N 7 15 4 8 1009.0 - 0.0
31/02:00pm 32.7 31.9 15.2 34 11.1 NE 13 20 7 11 1009.3 - 0.0
31/01:30pm 31.9 30.9 15.5 37 10.4 NNE 15 20 8 11 1009.6 - 0.0
31/01:00pm 31.1 30.2 15.8 39 9.7 NE 15 22 8 12 1009.8 - 0.0
31/12:30pm 30.8 29.3 16.2 41 9.3 E 19 24 10 13 1010.1 - 0.0
31/12:00pm 31.8 30.5 16.8 40 9.7 NE 19 33 10 18 1010.2 1005.8 0.0
31/11:30am 30.8 29.2 16.6 42 9.1 NNE 20 32 11 17 1010.4 - 0.0
31/11:00am 29.7 28.4 18.1 49 7.6 NE 22 32 12 17 1010.9 - 0.0
31/10:30am 28.7 26.2 17.2 49 7.4 NE 26 41 14 22 1011.1 - 0.0
31/10:00am 28.0 26.0 17.4 52 6.8 E 24 37 13 20 1011.1 - 0.0
31/09:30am 27.6 25.6 17.5 54 6.5 E 24 32 13 17 1011.1 - 0.0
31/09:00am 26.7 25.7 18.0 59 5.6 ESE 20 32 11 17 1011.5 1007.2 15.2
31/08:30am 25.7 24.9 18.5 64 4.7 ESE 20 28 11 15 1011.4 - 15.2
31/08:00am 24.8 24.4 18.1 66 4.3 SE 17 24 9 13 1011.2 - 15.2
31/07:30am 23.7 23.8 18.3 71 3.5 SSE 15 19 8 10 1011.2 - 15.2
31/07:00am 22.3 22.5 18.6 79 2.4 SSE 15 20 8 11 1011.1 - 15.2
31/06:30am 20.6 21.8 19.0 90 1.0 SSE 11 13 6 7 1011.0 - 15.2
31/06:00am 20.4 21.8 19.5 95 0.6 S 11 13 6 7 1011.2 1006.9 15.2
31/05:30am 20.4 21.2 19.0 92 0.9 SSE 13 19 7 10 1010.9 - 15.2
31/05:00am 20.2 20.6 19.1 93 0.7 SSE 15 22 8 12 1010.8 - 15.2
31/04:30am 20.1 20.5 19.0 93 0.7 S 15 20 8 11 1011.1 - 15.0
31/04:00am 20.1 20.4 18.7 92 0.9 SSW 15 20 8 11 1011.4 - 15.0
31/03:30am 19.9 19.7 18.6 92 0.8 S 17 19 9 10 1011.6 - 15.0
31/03:00am 20.0 20.2 19.4 96 0.4 S 17 22 9 12 1011.3 1007.0 15.0
31/02:30am 19.9 19.6 19.1 95 0.5 S 19 24 10 13 1011.1 - 15.0
31/02:00am 20.0 19.5 19.2 95 0.5 SSW 20 28 11 15 1012.0 - 15.0
31/01:54am 20.0 19.5 19.1 95 0.6 SSW 20 32 11 17 1012.1 - 14.8
31/01:35am 20.0 19.7 19.1 95 0.6 SSW 19 30 10 16 1012.3 - 14.0
31/01:30am 20.1 20.0 19.5 96 0.4 SW 19 26 10 14 1012.3 - 13.8
31/01:29am 20.1 20.0 19.5 96 0.4 SW 19 26 10 14 1012.3 - 13.8
31/01:00am 20.0 20.3 19.5 97 0.3 SW 17 24 9 13 1012.9 - 11.6
31/12:30am 20.4 20.2 19.8 96 0.4 WNW 20 30 11 16 1013.3 - 3.4
31/12:00am 20.5 18.2 19.3 93 0.8 NW 30 44 16 24 1012.7 1008.3 1.2
 
Date/Time
WST
Temp
°C
App
Temp
°C
Dew
Point
Rel
Hum
%
Delta-T
°C
Wind Press
QNH
hPa
Press
MSL
hPa
Rain
since 9 am
mm
Dir
 
Spd
km/h
Gust
km/h
Spd
kts
Gust
kts
30/11:55pm 21.1 18.8 19.4 90 1.1 NW 30 39 16 21 1012.6 - 1.0
30/11:52pm 22.2 22.0 19.8 86 1.6 SSW 20 28 11 15 1012.4 - 0.8
30/11:32pm 23.7 26.6 18.1 71 3.6 CALM 0 6 0 3 1011.6 - 0.2
30/11:30pm 23.9 26.6 17.8 68 3.9 CALM 0 6 0 3 1011.6 - 0.0
30/11:00pm 25.1 23.0 15.2 54 6.1 SE 20 28 11 15 1010.3 - 0.0
30/10:30pm 25.6 23.3 14.7 51 6.7 SE 20 30 11 16 1010.3 - 0.0
30/10:00pm 25.8 23.7 14.7 50 6.8 ESE 19 28 10 15 1010.3 - 0.0
30/09:30pm 26.0 23.0 14.8 50 6.9 SE 24 35 13 19 1010.1 - 0.0
30/09:00pm 26.5 22.6 14.4 47 7.4 ESE 28 39 15 21 1009.2 1004.9 0.0
30/08:30pm 26.5 22.0 14.8 48 7.2 E 32 43 17 23 1009.1 - 0.0
30/08:00pm 27.3 22.8 16.4 51 6.9 E 35 48 19 26 1008.9 - 0.0
30/07:30pm 29.2 26.3 16.1 45 8.3 ENE 26 41 14 22 1008.5 - 0.0
30/07:00pm 31.4 27.6 14.6 36 10.5 E 28 39 15 21 1008.0 - 0.0
30/06:30pm 31.9 29.9 15.5 37 10.4 SE 20 26 11 14 1007.3 - 0.0
30/06:00pm 32.1 30.3 15.4 36 10.6 ESE 19 28 10 15 1007.1 1002.7 0.0
30/05:30pm 32.9 30.8 14.8 33 11.4 SSE 19 24 10 13 1006.9 - 0.0
30/05:00pm 32.0 30.5 15.2 36 10.6 ESE 17 24 9 13 1007.1 - 0.0
30/04:30pm 31.9 29.8 15.1 36 10.6 SE 20 28 11 15 1007.4 - 0.0
30/04:00pm 32.5 30.1 15.5 36 10.8 SE 22 28 12 15 1007.5 - 0.0
30/03:30pm 32.5 29.9 14.9 34 11.1 SE 22 35 12 19 1008.2 - 0.0
30/03:00pm 32.8 30.4 13.8 31 11.8 SE 19 26 10 14 1008.2 1003.8 0.0
30/02:30pm 30.7 27.6 15.5 39 9.6 ESE 26 32 14 17 1008.5 - 0.0
30/02:29pm 30.4 26.9 15.5 40 9.4 SE 28 32 15 17 1008.5 - 0.0
30/02:11pm 29.8 24.4 16.1 43 8.7 E 39 50 21 27 1008.8 - 0.0
30/02:01pm 29.1 23.5 17.5 49 7.5 ENE 43 54 23 29 1008.8 - 0.0
30/02:00pm 30.0 27.9 17.1 46 8.3 ESE 24 54 13 29 1008.8 - 0.0
30/01:30pm 32.7 31.5 13.9 32 11.7 SE 13 20 7 11 1009.0 - 0.0
30/01:00pm 32.8 31.6 14.0 32 11.7 ESE 13 20 7 11 1009.3 - 0.0
30/12:30pm 31.5 29.1 13.9 34 10.9 E 19 28 10 15 1009.7 - 0.0
30/12:00pm 32.2 29.9 14.0 33 11.3 SE 19 33 10 18 1010.1 1005.7 0.0
30/11:30am 32.4 30.2 14.3 33 11.3 SE 19 28 10 15 1010.4 - 0.0
30/11:00am 31.7 29.2 14.2 34 10.9 ESE 20 32 11 17 1010.7 - 0.0
30/10:30am 31.7 28.8 13.9 34 11.0 SE 22 30 12 16 1010.8 - 0.0
30/10:00am 31.3 28.9 13.8 34 10.8 SE 19 28 10 15 1010.8 - 0.0
30/09:30am 30.7 28.6 11.1 30 11.6 NE 13 20 7 11 1010.6 - 0.0
30/09:00am 29.9 27.7 13.3 36 10.1 E 17 24 9 13 1010.7 1006.3 0.0
30/08:30am 29.2 26.6 11.9 34 10.3 ENE 17 26 9 14 1010.7 - 0.0
30/08:00am 27.8 25.8 12.8 39 9.0 NE 15 20 8 11 1010.4 - 0.0
30/07:30am 26.1 24.4 13.5 45 7.6 N 15 22 8 12 1010.0 - 0.0
30/07:00am 24.4 22.5 14.1 52 6.2 NNE 17 22 9 12 1010.3 - 0.0
30/06:30am 24.0 21.8 14.4 55 5.8 NNE 19 30 10 16 1010.1 - 0.0
30/06:00am 23.3 21.3 14.9 59 5.1 ENE 19 26 10 14 1009.8 1005.5 0.0
30/05:30am 23.1 19.7 14.7 59 5.1 ENE 26 35 14 19 1009.6 - 0.0
30/05:00am 23.0 19.2 14.6 59 5.1 ENE 28 39 15 21 1009.7 - 0.0
30/04:33am 22.9 19.1 14.8 60 4.9 E 28 46 15 25 1010.0 - 0.0
30/04:30am 23.0 18.5 14.8 60 5.0 ENE 32 46 17 25 1010.0 - 0.0
30/04:00am 23.0 18.1 15.3 62 4.7 E 35 56 19 30 1010.0 - 0.0
30/03:53am 23.1 17.8 15.3 61 4.8 ENE 37 56 20 30 1010.1 - 0.0
30/03:30am 23.3 18.5 15.5 61 4.8 ENE 35 52 19 28 1010.1 - 0.0
30/03:12am 23.7 19.3 15.2 59 5.2 ENE 32 50 17 27 1010.5 - 0.0
30/03:00am 23.8 19.4 15.1 58 5.3 ENE 32 44 17 24 1010.3 1005.9 0.0
30/02:30am 24.2 21.2 14.9 56 5.7 E 24 33 13 18 1010.4 - 0.0
30/02:00am 24.8 21.4 13.8 50 6.6 E 24 30 13 16 1009.7 - 0.0
30/01:30am 24.5 22.8 14.7 54 6.0 E 17 24 9 13 1010.1 - 0.0
30/01:00am 24.3 23.1 15.0 56 5.7 NNE 15 22 8 12 1010.5 - 0.0
30/12:30am 25.0 22.1 13.9 50 6.7 ESE 22 33 12 18 1010.3 - 0.0
30/12:00am 25.0 21.1 14.3 51 6.5 SE 28 41 15 22 1010.5 1006.1 0.0
 
Date/Time
WST
Temp
°C
App
Temp
°C
Dew
Point
Rel
Hum
%
Delta-T
°C
Wind Press
QNH
hPa
Press
MSL
hPa
Rain
since 9 am
mm
Dir
 
Spd
km/h
Gust
km/h
Spd
kts
Gust
kts
29/11:30pm 25.3 20.8 13.9 49 6.9 SE 30 48 16 26 1010.3 - 0.0
29/11:00pm 25.3 20.5 13.9 49 6.9 SSE 32 43 17 23 1011.0 - 0.0
29/10:30pm 25.0 19.7 14.3 51 6.5 S 35 48 19 26 1011.3 - 0.0
29/10:00pm 24.9 19.9 15.1 54 6.0 S 35 44 19 24 1011.3 - 0.0
29/09:30pm 25.0 20.3 14.9 53 6.2 S 33 50 18 27 1011.4 - 0.0
29/09:02pm 25.4 21.0 15.6 54 6.1 S 33 52 18 28 1011.4 - 0.0
29/09:00pm 25.3 20.5 15.6 55 6.0 S 35 52 19 28 1011.5 1007.2 0.0
29/08:36pm 25.8 22.0 15.7 53 6.3 SSW 30 50 16 27 1011.2 - 0.0
29/08:30pm 26.3 22.9 15.7 52 6.6 SSW 28 43 15 23 1011.3 - 0.0
29/08:00pm 26.7 23.4 16.0 52 6.7 SW 28 37 15 20 1010.3 - 0.0
29/07:30pm 27.7 20.0 14.4 44 8.2 SSW 48 67 26 36 1008.7 - 0.0
29/07:02pm 31.3 23.8 12.0 30 11.6 SW 43 63 23 34 1007.4 - 0.0
29/07:00pm 35.2 33.9 9.8 21 15.0 ENE 7 33 4 18 1007.1 - 0.0
29/06:30pm 35.0 33.2 10.8 23 14.5 E 11 17 6 9 1005.9 - 0.0
29/06:00pm 35.0 33.2 10.8 23 14.5 NE 11 22 6 12 1005.3 1000.9 0.0
29/05:30pm 35.5 32.0 10.1 21 15.1 ENE 19 30 10 16 1005.1 - 0.0
29/05:00pm 36.1 32.4 10.1 20 15.4 ENE 20 32 11 17 1005.0 - 0.0
29/04:30pm 36.6 32.2 9.1 18 16.1 E 22 30 12 16 1004.9 - 0.0
29/04:00pm 36.3 31.0 9.9 20 15.7 ENE 28 37 15 20 1005.0 - 0.0
29/03:30pm 36.0 30.5 10.7 21 15.2 ENE 30 41 16 22 1005.5 - 0.0
29/03:00pm 35.8 30.2 12.2 24 14.5 E 33 46 18 25 1006.0 1001.6 0.0
29/02:54pm 35.9 29.6 12.3 24 14.5 E 37 46 20 25 1005.9 - 0.0
29/02:30pm 36.6 32.3 10.7 21 15.6 SE 24 32 13 17 1006.2 - 0.0
29/02:00pm 37.7 35.2 9.7 18 16.6 ESE 13 20 7 11 1006.7 - 0.0
29/01:30pm 37.0 34.8 9.2 18 16.4 SE 11 19 6 10 1007.3 - 0.0
29/01:00pm 36.2 31.8 7.3 17 16.5 ESE 20 24 11 13 1007.9 - 0.0
29/12:30pm 35.8 33.9 11.9 23 14.6 ENE 13 24 7 13 1008.4 - 0.0
29/12:00pm 35.4 34.3 14.3 28 13.3 NE 13 24 7 13 1008.9 1004.5 0.0
29/11:30am 34.2 33.6 14.5 30 12.4 NNE 11 17 6 9 1009.5 - 0.0
29/11:00am 33.5 32.7 15.2 33 11.6 N 13 20 7 11 1009.8 - 0.0
29/10:30am 33.3 32.7 15.6 34 11.3 NNE 13 24 7 13 1010.1 - 0.0
29/10:00am 32.1 31.2 15.8 37 10.4 NE 15 22 8 12 1010.4 - 0.0
29/09:30am 30.8 29.9 15.8 40 9.5 NE 15 20 8 11 1010.5 - 0.0
29/09:00am 29.8 29.3 15.9 43 8.8 NNE 13 20 7 11 1010.5 1006.1 0.0
29/08:30am 29.5 28.8 16.3 45 8.4 NE 15 22 8 12 1010.4 - 0.0
29/08:00am 28.5 27.0 16.2 47 7.8 NE 19 28 10 15 1010.4 - 0.0
29/07:30am 27.4 25.6 15.9 49 7.2 NE 20 32 11 17 1010.3 - 0.0
29/07:00am 26.4 24.8 16.0 52 6.5 NE 19 30 10 16 1010.1 - 0.0
29/06:30am 25.3 23.7 16.0 56 5.8 NE 19 26 10 14 1009.8 - 0.0
29/06:00am 24.8 23.5 15.8 57 5.6 ENE 17 24 9 13 1009.5 1005.2 0.0
29/05:30am 24.7 23.0 15.7 57 5.6 ENE 19 26 10 14 1009.0 - 0.0
29/05:00am 24.9 22.9 15.5 56 5.8 ENE 20 30 11 16 1008.6 - 0.0
29/04:30am 25.2 22.5 15.5 55 6.0 ENE 24 30 13 16 1008.5 - 0.0
29/04:00am 25.5 23.1 15.3 53 6.3 ENE 22 32 12 17 1008.5 - 0.0
29/03:30am 25.7 23.7 15.4 53 6.4 ENE 20 30 11 16 1008.5 - 0.0
29/03:00am 26.0 24.1 15.2 51 6.7 E 19 28 10 15 1008.1 1003.7 0.0
29/02:30am 26.6 24.6 14.9 48 7.2 E 19 26 10 14 1007.9 - 0.0
29/02:00am 27.1 25.8 14.8 47 7.6 ENE 15 20 8 11 1007.7 - 0.0
29/01:30am 27.6 26.0 14.0 43 8.3 ENE 15 20 8 11 1007.9 - 0.0
29/01:00am 28.2 24.8 13.6 40 8.9 ENE 24 37 13 20 1008.0 - 0.0
29/12:30am 28.8 24.5 12.2 35 9.9 ENE 26 39 14 21 1008.3 - 0.0
29/12:00am 29.2 25.6 10.7 31 10.8 E 20 28 11 15 1008.1 1003.7 0.0
 
Date/Time
WST
Temp
°C
App
Temp
°C
Dew
Point
Rel
Hum
%
Delta-T
°C
Wind Press
QNH
hPa
Press
MSL
hPa
Rain
since 9 am
mm
Dir
 
Spd
km/h
Gust
km/h
Spd
kts
Gust
kts
28/11:30pm 29.6 26.1 10.8 31 11.0 E 20 26 11 14 1008.2 - 0.0
28/11:00pm 29.9 26.5 11.3 31 11.0 E 20 28 11 15 1008.3 - 0.0
28/10:30pm 30.2 27.3 12.9 34 10.5 E 20 28 11 15 1008.3 - 0.0
28/10:00pm 30.8 30.5 14.4 36 10.2 E 9 13 5 7 1008.1 - 0.0
28/09:30pm 31.3 30.0 13.8 34 10.8 ESE 13 17 7 9 1007.9 - 0.0
28/09:00pm 31.8 30.5 13.7 33 11.2 ESE 13 17 7 9 1007.7 1003.4 0.0
28/08:30pm 32.3 30.9 13.5 32 11.6 ESE 13 15 7 8 1007.5 - 0.0
28/08:00pm 32.8 31.7 13.1 30 12.1 ESE 11 15 6 8 1007.2 - 0.0
28/07:30pm 33.4 31.3 12.4 28 12.8 ESE 15 20 8 11 1007.0 - 0.0
28/07:00pm 33.8 31.6 12.1 26 13.2 ESE 15 20 8 11 1006.8 - 0.0
28/06:30pm 34.2 31.2 10.5 23 14.1 ESE 17 26 9 14 1006.5 - 0.0

Other Formats:

Comma delimited format used in spreadsheet applications
http://www.bom.gov.au/fwo/IDW60801/IDW60801.94430.axf

JavaScript Object Notation format (JSON) in row-major order
http://www.bom.gov.au/fwo/IDW60801/IDW60801.94430.json